createdAt,value
2022-08-19T00:00:46.420Z,66.80
2022-08-19T00:03:13.122Z,67.00
2022-08-19T00:05:39.846Z,67.10
2022-08-19T00:08:06.549Z,67.10
2022-08-19T00:10:33.422Z,67.10
2022-08-19T00:13:00.127Z,67.20
2022-08-19T00:15:26.942Z,67.20
2022-08-19T00:17:53.646Z,67.40
2022-08-19T00:20:21.339Z,67.40
2022-08-19T00:22:48.323Z,67.40
2022-08-19T00:25:15.756Z,67.40
2022-08-19T00:27:43.627Z,67.60
2022-08-19T00:30:11.182Z,67.70
2022-08-19T00:32:38.140Z,67.70
2022-08-19T00:35:05.400Z,67.70
2022-08-19T00:37:32.093Z,67.90
2022-08-19T00:39:58.866Z,67.90
2022-08-19T00:42:25.609Z,67.90
2022-08-19T00:44:52.374Z,68.00
2022-08-19T00:47:19.126Z,68.00
2022-08-19T00:49:52.840Z,68.10
2022-08-19T00:52:26.477Z,68.40
2022-08-19T00:54:53.191Z,68.40
2022-08-19T00:57:21.888Z,68.50
2022-08-19T01:00:01.128Z,68.50
2022-08-19T01:02:29.339Z,68.60
2022-08-19T01:04:56.069Z,68.70
2022-08-19T01:07:22.794Z,68.70
2022-08-19T01:09:50.745Z,68.90
2022-08-19T01:12:17.477Z,68.90
2022-08-19T01:14:44.186Z,69.00
2022-08-19T01:17:11.124Z,69.00
2022-08-19T01:19:44.124Z,69.20
2022-08-19T01:22:49.123Z,69.40
2022-08-19T01:25:17.526Z,69.50
2022-08-19T01:27:45.720Z,69.60
2022-08-19T01:30:18.362Z,69.70
2022-08-19T01:32:45.062Z,69.90
2022-08-19T01:35:12.298Z,70.00
2022-08-19T01:37:55.062Z,70.10
2022-08-19T01:40:23.299Z,70.40
2022-08-19T01:42:50.459Z,70.40
2022-08-19T01:45:18.162Z,70.40
2022-08-19T01:47:44.922Z,70.50
2022-08-19T01:50:24.885Z,70.70
2022-08-19T01:53:01.240Z,70.70
2022-08-19T01:55:29.265Z,70.70
2022-08-19T01:57:58.006Z,70.80
2022-08-19T02:00:25.407Z,70.90
2022-08-19T02:02:52.495Z,70.90
2022-08-19T02:05:19.398Z,70.90
2022-08-19T02:07:46.097Z,71.00
2022-08-19T02:10:18.715Z,71.00
2022-08-19T02:12:45.503Z,71.10
2022-08-19T02:15:14.729Z,71.20
2022-08-19T02:17:42.108Z,71.30
2022-08-19T02:20:09.494Z,71.30
2022-08-19T02:22:36.214Z,71.40
2022-08-19T02:25:03.042Z,71.50
2022-08-19T02:27:29.744Z,71.60
2022-08-19T02:29:56.431Z,71.60
2022-08-19T02:32:23.137Z,71.60
2022-08-19T02:34:49.838Z,71.70
2022-08-19T02:37:16.543Z,71.70
2022-08-19T02:39:43.394Z,71.90
2022-08-19T02:42:10.131Z,71.90
2022-08-19T02:44:36.829Z,71.90
2022-08-19T02:47:03.697Z,72.00
2022-08-19T02:49:34.704Z,71.90
2022-08-19T02:52:02.456Z,72.00
2022-08-19T02:54:30.017Z,72.00
2022-08-19T02:56:56.726Z,72.00
2022-08-19T02:59:23.429Z,72.10
2022-08-19T03:01:50.191Z,72.10
2022-08-19T03:04:17.155Z,72.20
2022-08-19T03:06:45.165Z,72.30
2022-08-19T03:09:12.370Z,72.40
2022-08-19T03:11:39.385Z,72.30
2022-08-19T03:14:06.827Z,72.50
2022-08-19T03:16:35.936Z,72.50
2022-08-19T03:19:02.739Z,72.50
2022-08-19T03:21:33.187Z,72.60
2022-08-19T03:24:02.314Z,72.70
2022-08-19T03:26:29.212Z,72.60
2022-08-19T03:28:57.823Z,72.80
2022-08-19T03:31:43.806Z,72.80
2022-08-19T03:34:14.778Z,73.00
2022-08-19T03:36:41.634Z,73.00
2022-08-19T03:39:08.390Z,73.00
2022-08-19T03:41:45.554Z,73.20
2022-08-19T03:44:25.096Z,73.30
2022-08-19T03:46:54.443Z,73.30
2022-08-19T03:49:21.815Z,73.30
2022-08-19T03:51:55.709Z,73.30
2022-08-19T03:54:23.317Z,73.40
2022-08-19T03:56:50.857Z,73.50
2022-08-19T03:59:20.428Z,73.70
2022-08-19T04:01:47.176Z,73.80
2022-08-19T04:04:13.872Z,73.90
2022-08-19T04:06:40.594Z,74.00
2022-08-19T04:09:11.074Z,74.10
2022-08-19T04:11:46.869Z,74.30
2022-08-19T04:14:15.572Z,74.40
2022-08-19T04:16:42.862Z,74.40
2022-08-19T04:19:09.566Z,74.60
2022-08-19T04:21:36.288Z,74.80
2022-08-19T04:24:03.856Z,75.00
2022-08-19T04:26:35.222Z,75.00
2022-08-19T04:29:03.246Z,75.20
2022-08-19T04:31:31.183Z,75.30
2022-08-19T04:33:59.073Z,75.30
2022-08-19T04:36:30.418Z,75.30
2022-08-19T04:38:58.518Z,75.50
2022-08-19T04:41:25.561Z,75.50
2022-08-19T04:43:52.685Z,75.50
2022-08-19T04:46:39.036Z,75.50
2022-08-19T04:49:13.172Z,75.70
2022-08-19T04:51:42.267Z,75.70
2022-08-19T04:54:08.982Z,75.80
2022-08-19T04:56:35.843Z,75.80
2022-08-19T04:59:02.537Z,75.80
2022-08-19T05:01:29.534Z,75.80
2022-08-19T05:03:57.321Z,76.00
2022-08-19T05:06:24.513Z,76.00
2022-08-19T05:08:51.353Z,76.10
2022-08-19T05:11:26.426Z,76.10
2022-08-19T05:13:53.457Z,76.10
2022-08-19T05:16:22.002Z,76.10
2022-08-19T05:18:48.759Z,76.10
2022-08-19T05:21:17.452Z,76.20
2022-08-19T05:23:44.493Z,76.30
2022-08-19T05:26:11.260Z,76.30
2022-08-19T05:28:37.963Z,76.30
2022-08-19T05:31:04.833Z,76.30
2022-08-19T05:33:31.565Z,76.30
2022-08-19T05:35:58.289Z,76.30
2022-08-19T05:38:25.037Z,76.30
2022-08-19T05:40:51.765Z,76.30
2022-08-19T05:43:18.457Z,76.20
2022-08-19T05:45:45.335Z,76.20
2022-08-19T05:48:12.316Z,76.40
2022-08-19T05:50:40.357Z,76.00
2022-08-19T05:53:07.069Z,76.00
2022-08-19T05:55:34.024Z,76.10
2022-08-19T05:58:00.745Z,76.00
2022-08-19T06:00:27.507Z,76.00
2022-08-19T06:02:54.383Z,76.80
2022-08-19T06:05:21.205Z,76.10
2022-08-19T06:07:47.916Z,76.00
2022-08-19T06:10:15.321Z,75.90
2022-08-19T06:12:42.066Z,75.70
2022-08-19T06:15:11.582Z,75.50
2022-08-19T06:17:38.606Z,75.30
2022-08-19T06:20:07.136Z,75.20
2022-08-19T06:22:39.058Z,75.00
2022-08-19T06:25:06.331Z,74.80
2022-08-19T06:27:33.134Z,74.70
2022-08-19T06:29:59.973Z,74.70
2022-08-19T06:32:26.729Z,75.30
2022-08-19T06:34:53.426Z,74.30
2022-08-19T06:37:20.231Z,74.20
2022-08-19T06:39:47.008Z,74.00
2022-08-19T06:42:13.912Z,73.80
2022-08-19T06:44:43.359Z,73.60
2022-08-19T06:47:14.929Z,73.40
2022-08-19T06:49:50.044Z,73.20
2022-08-19T06:52:16.849Z,73.00
2022-08-19T06:54:45.926Z,72.80
2022-08-19T06:57:24.413Z,72.70
2022-08-19T06:59:51.223Z,72.40
2022-08-19T07:04:52.721Z,72.00
2022-08-19T07:07:21.512Z,72.00
2022-08-19T07:09:57.143Z,71.80
2022-08-19T07:12:30.238Z,71.70
2022-08-19T07:14:57.259Z,71.40
2022-08-19T07:17:24.473Z,71.40
2022-08-19T07:19:51.652Z,71.20
2022-08-19T07:22:21.358Z,71.20
2022-08-19T07:24:51.498Z,71.00
2022-08-19T07:27:19.478Z,70.80
2022-08-19T07:29:56.123Z,70.80
2022-08-19T07:32:24.845Z,70.60
2022-08-19T07:34:52.251Z,70.60
2022-08-19T07:37:18.980Z,70.40
2022-08-19T07:39:45.760Z,70.40
2022-08-19T07:42:13.267Z,70.30
2022-08-19T07:47:49.490Z,70.30
2022-08-19T07:49:59.035Z,70.40
2022-08-19T07:52:25.748Z,70.50
2022-08-19T07:54:52.453Z,70.40
2022-08-19T07:57:19.229Z,70.30
2022-08-19T07:59:46.039Z,70.20
2022-08-19T08:02:12.782Z,70.10
2022-08-19T08:04:39.489Z,70.00
2022-08-19T08:07:06.841Z,69.60
2022-08-19T08:09:39.260Z,69.30
2022-08-19T08:12:33.057Z,69.30
2022-08-19T08:15:00.418Z,69.10
2022-08-19T08:17:31.063Z,69.10
2022-08-19T08:20:15.336Z,69.10
2022-08-19T08:22:46.469Z,69.00
2022-08-19T08:25:18.336Z,68.90
2022-08-19T08:27:48.047Z,68.60
2022-08-19T08:30:25.696Z,68.50
2022-08-19T08:33:00.527Z,68.30
2022-08-19T08:35:29.474Z,68.20
2022-08-19T08:37:56.938Z,68.00
2022-08-19T08:40:51.877Z,67.90
2022-08-19T08:43:33.186Z,67.70
2022-08-19T08:46:30.691Z,68.50
2022-08-19T08:49:52.858Z,67.50
2022-08-19T08:52:32.086Z,67.10
2022-08-19T08:55:00.923Z,66.70
2022-08-19T08:57:50.482Z,66.40
2022-08-19T09:00:34.092Z,66.20
2022-08-19T09:03:01.068Z,66.20
2022-08-19T09:05:53.107Z,66.30
2022-08-19T09:08:36.608Z,66.20
2022-08-19T09:11:06.786Z,66.10
2022-08-19T09:14:35.008Z,66.10
2022-08-19T09:17:00.914Z,65.80
2022-08-19T09:19:27.694Z,66.10
2022-08-19T09:21:56.400Z,66.10
2022-08-19T09:24:23.741Z,66.10
2022-08-19T09:26:57.856Z,66.20
2022-08-19T09:29:24.657Z,66.00
2022-08-19T09:31:51.740Z,65.70
2022-08-19T09:34:21.389Z,65.30
2022-08-19T09:36:49.403Z,65.00
2022-08-19T09:39:16.640Z,64.70
2022-08-19T09:41:47.615Z,64.60
2022-08-19T09:44:15.961Z,64.30
2022-08-19T09:46:42.700Z,64.00
2022-08-19T09:49:09.401Z,63.90
2022-08-19T09:51:36.101Z,63.60
2022-08-19T09:54:05.101Z,63.20
2022-08-19T09:56:32.139Z,62.80
2022-08-19T09:58:59.969Z,62.40
2022-08-19T10:01:27.934Z,61.90
2022-08-19T10:03:56.281Z,61.60
2022-08-19T10:06:46.445Z,61.40
2022-08-19T10:09:12.515Z,61.30
2022-08-19T10:11:46.878Z,61.00
2022-08-19T10:14:19.472Z,60.70
2022-08-19T10:16:46.309Z,60.50
2022-08-19T10:19:13.260Z,60.30
2022-08-19T10:21:40.629Z,60.30
2022-08-19T10:24:09.530Z,60.40
2022-08-19T10:26:37.992Z,60.30
2022-08-19T10:29:05.387Z,59.90
2022-08-19T10:32:01.417Z,59.80
2022-08-19T10:34:27.554Z,59.90
2022-08-19T10:36:56.643Z,59.30
2022-08-19T10:39:28.805Z,58.50
2022-08-19T10:41:57.674Z,58.30
2022-08-19T10:44:24.479Z,58.20
2022-08-19T10:46:51.279Z,58.20
2022-08-19T10:49:18.070Z,58.20
2022-08-19T10:51:47.950Z,58.10
2022-08-19T10:54:15.808Z,58.10
2022-08-19T10:56:42.670Z,58.40
2022-08-19T10:59:09.445Z,58.60
2022-08-19T11:01:36.534Z,59.00
2022-08-19T11:04:04.435Z,59.30
2022-08-19T11:06:33.007Z,59.60
2022-08-19T11:08:59.879Z,59.90
2022-08-19T11:11:26.880Z,60.00
2022-08-19T11:13:53.690Z,60.20
2022-08-19T11:16:25.537Z,60.30
2022-08-19T11:18:54.825Z,60.60
2022-08-19T11:21:24.271Z,60.70
2022-08-19T11:23:52.673Z,60.70
2022-08-19T11:26:21.020Z,60.20
2022-08-19T11:28:48.203Z,59.40
2022-08-19T11:31:20.075Z,59.40
2022-08-19T11:33:47.841Z,59.30
2022-08-19T11:36:15.344Z,59.40
2022-08-19T11:38:42.882Z,59.70
2022-08-19T11:41:09.681Z,59.80
2022-08-19T11:43:37.764Z,59.90
2022-08-19T11:46:09.277Z,60.00
2022-08-19T11:48:36.125Z,59.70
2022-08-19T11:51:08.671Z,59.30
2022-08-19T11:53:35.523Z,58.90
2022-08-19T11:56:02.559Z,58.60
2022-08-19T11:58:29.576Z,58.40
2022-08-19T12:00:56.474Z,58.30
2022-08-19T12:03:23.413Z,58.30
2022-08-19T12:05:50.131Z,58.40
2022-08-19T12:08:17.135Z,58.40
2022-08-19T12:10:43.988Z,58.50
2022-08-19T12:13:10.912Z,58.40
2022-08-19T12:15:38.595Z,58.40
2022-08-19T12:18:05.708Z,58.30
2022-08-19T12:20:33.495Z,57.90
2022-08-19T12:23:03.795Z,57.70
2022-08-19T12:25:30.546Z,57.20
2022-08-19T12:27:57.847Z,56.90
2022-08-19T12:30:25.331Z,56.70
2022-08-19T12:32:52.415Z,56.50
2022-08-19T12:35:19.543Z,57.10
2022-08-19T12:37:55.820Z,55.90
2022-08-19T12:40:24.277Z,55.30
2022-08-19T12:42:54.086Z,54.90
2022-08-19T12:45:21.368Z,54.80
2022-08-19T12:47:49.696Z,54.60
2022-08-19T12:50:16.672Z,54.60
2022-08-19T12:52:43.591Z,54.60
2022-08-19T12:55:10.580Z,54.60
2022-08-19T12:57:37.494Z,54.60
2022-08-19T13:00:09.651Z,54.60
2022-08-19T13:02:38.586Z,54.40
2022-08-19T13:05:07.607Z,54.30
2022-08-19T13:07:34.415Z,53.90
2022-08-19T13:10:01.736Z,53.70
2022-08-19T13:12:29.328Z,53.50
2022-08-19T13:14:56.514Z,52.90
2022-08-19T13:17:23.285Z,52.00
2022-08-19T13:19:50.034Z,51.10
2022-08-19T13:22:16.860Z,50.40
2022-08-19T13:24:47.055Z,49.40
2022-08-19T13:27:14.443Z,48.70
2022-08-19T13:29:43.099Z,48.00
2022-08-19T13:32:09.844Z,47.40
2022-08-19T13:34:39.933Z,46.80
2022-08-19T13:37:06.775Z,46.20
2022-08-19T13:39:33.884Z,45.60
2022-08-19T13:42:01.046Z,44.90
2022-08-19T13:44:28.898Z,44.30
2022-08-19T13:46:55.631Z,43.50
2022-08-19T13:49:22.405Z,43.00
2022-08-19T13:51:49.279Z,42.50
2022-08-19T13:54:16.197Z,42.30
2022-08-19T13:56:44.191Z,42.20
2022-08-19T13:59:11.283Z,42.00
2022-08-19T14:01:38.399Z,42.20
2022-08-19T14:04:05.450Z,41.90
2022-08-19T14:06:32.562Z,41.40
2022-08-19T14:08:59.600Z,40.70
2022-08-19T14:11:26.368Z,40.00
2022-08-19T14:13:53.152Z,39.50
2022-08-19T14:16:20.894Z,38.90
2022-08-19T14:18:47.692Z,38.20
2022-08-19T14:21:19.108Z,37.60
2022-08-19T14:23:45.875Z,37.10
2022-08-19T14:26:15.169Z,36.60
2022-08-19T14:28:42.609Z,36.30
2022-08-19T14:31:13.202Z,35.90
2022-08-19T14:33:40.084Z,34.90
2022-08-19T14:36:06.968Z,34.60
2022-08-19T14:38:33.944Z,33.80
2022-08-19T14:41:30.196Z,32.90
2022-08-19T14:43:57.507Z,31.80
2022-08-19T14:46:28.215Z,31.60
2022-08-19T14:48:56.538Z,30.80
2022-08-19T14:51:24.116Z,30.00
2022-08-19T14:53:51.187Z,29.30
2022-08-19T14:56:20.724Z,28.60
2022-08-19T14:58:47.528Z,28.20
2022-08-19T15:01:14.541Z,28.00
2022-08-19T15:03:41.821Z,28.20
2022-08-19T15:06:09.191Z,27.20
2022-08-19T15:08:40.240Z,26.70
2022-08-19T15:11:18.848Z,26.30
2022-08-19T15:13:45.633Z,25.60
2022-08-19T15:16:17.997Z,25.50
2022-08-19T15:18:45.467Z,25.20
2022-08-19T15:21:13.220Z,25.00
2022-08-19T15:23:40.291Z,24.80
2022-08-19T15:26:07.089Z,24.90
2022-08-19T15:28:33.849Z,25.00
2022-08-19T15:31:00.686Z,25.10
2022-08-19T15:33:27.455Z,25.20
2022-08-19T15:35:54.157Z,25.30
2022-08-19T15:38:21.076Z,25.40
2022-08-19T15:40:49.982Z,25.40
2022-08-19T15:43:17.435Z,25.40
2022-08-19T15:45:49.545Z,25.50
2022-08-19T15:48:16.480Z,25.50
2022-08-19T15:50:43.241Z,25.60
2022-08-19T15:53:10.624Z,25.50
2022-08-19T15:55:42.666Z,25.70
2022-08-19T15:58:28.057Z,25.80
2022-08-19T16:01:01.414Z,26.20
2022-08-19T16:03:28.888Z,26.60
2022-08-19T16:05:55.780Z,26.90
2022-08-19T16:08:22.554Z,27.20
2022-08-19T16:10:49.503Z,27.40
2022-08-19T16:13:16.228Z,27.70
2022-08-19T16:15:43.177Z,27.90
2022-08-19T16:18:09.939Z,28.00
2022-08-19T16:20:36.642Z,27.90
2022-08-19T16:23:03.665Z,27.70
2022-08-19T16:25:30.440Z,27.30
2022-08-19T16:28:07.135Z,27.10
2022-08-19T16:30:35.407Z,26.90
2022-08-19T16:33:02.404Z,26.80
2022-08-19T16:35:29.169Z,26.50
2022-08-19T16:37:56.125Z,26.70
2022-08-19T16:40:23.454Z,26.70
2022-08-19T16:42:50.580Z,26.60
2022-08-19T16:45:17.347Z,26.40
2022-08-19T16:47:44.125Z,26.30
2022-08-19T16:50:10.904Z,26.10
2022-08-19T16:52:37.697Z,26.30
2022-08-19T16:55:05.429Z,26.70
2022-08-19T16:57:32.557Z,27.10
2022-08-19T16:59:59.274Z,27.50
2022-08-19T17:02:30.403Z,27.80
2022-08-19T17:04:58.915Z,28.10
2022-08-19T17:07:29.486Z,28.50
2022-08-19T17:10:00.779Z,28.90
2022-08-19T17:12:32.208Z,29.10
2022-08-19T17:15:00.239Z,29.30
2022-08-19T17:17:29.169Z,29.40
2022-08-19T17:19:56.996Z,29.60
2022-08-19T17:22:23.749Z,29.80
2022-08-19T17:24:50.475Z,29.80
2022-08-19T17:27:17.418Z,30.00
2022-08-19T17:29:47.001Z,30.30
2022-08-19T17:32:14.301Z,30.50
2022-08-19T17:34:41.115Z,30.60
2022-08-19T17:37:07.896Z,30.90
2022-08-19T17:39:39.671Z,31.20
2022-08-19T17:42:06.904Z,31.30
2022-08-19T17:44:35.738Z,31.20
2022-08-19T17:47:02.765Z,31.60
2022-08-19T17:49:29.738Z,31.70
2022-08-19T17:51:59.575Z,31.90
2022-08-19T17:54:33.260Z,32.00
2022-08-19T17:57:01.520Z,32.20
2022-08-19T17:59:30.310Z,32.30
2022-08-19T18:01:57.345Z,32.50
2022-08-19T18:04:24.861Z,32.60
2022-08-19T18:06:52.962Z,32.70
2022-08-19T18:09:24.874Z,32.90
2022-08-19T18:11:53.514Z,33.10
2022-08-19T18:14:22.160Z,33.20
2022-08-19T18:16:48.866Z,33.30
2022-08-19T18:19:16.452Z,33.40
2022-08-19T18:21:43.213Z,33.60
2022-08-19T18:24:09.948Z,33.90
2022-08-19T18:26:36.817Z,34.00
2022-08-19T18:29:03.656Z,34.10
2022-08-19T18:31:30.368Z,34.20
2022-08-19T18:33:57.515Z,34.40
2022-08-19T18:36:52.128Z,34.50
2022-08-19T18:39:11.028Z,34.70
2022-08-19T18:41:39.071Z,34.80
2022-08-19T18:44:05.813Z,35.00
2022-08-19T18:46:33.030Z,35.10
2022-08-19T18:49:03.629Z,35.20
2022-08-19T18:51:30.361Z,35.30
2022-08-19T18:53:57.077Z,35.40
2022-08-19T18:56:23.795Z,35.60
2022-08-19T18:58:50.493Z,35.80
2022-08-19T19:01:19.377Z,35.90
2022-08-19T19:03:50.758Z,36.00
2022-08-19T19:06:23.673Z,36.20
2022-08-19T19:08:51.466Z,36.30
2022-08-19T19:11:21.464Z,36.40
2022-08-19T19:13:48.182Z,36.60
2022-08-19T19:16:15.058Z,36.60
2022-08-19T19:18:41.839Z,36.70
2022-08-19T19:21:09.601Z,36.80
2022-08-19T19:23:37.373Z,37.00
2022-08-19T19:26:04.193Z,37.10
2022-08-19T19:28:30.922Z,37.30
2022-08-19T19:30:57.718Z,37.30
2022-08-19T19:33:25.609Z,37.50
2022-08-19T19:35:52.400Z,37.60
2022-08-19T19:38:19.206Z,37.80
2022-08-19T19:40:45.961Z,37.90
2022-08-19T19:43:12.651Z,38.10
2022-08-19T19:45:39.404Z,38.20
2022-08-19T19:48:06.132Z,38.40
2022-08-19T19:50:32.850Z,38.50
2022-08-19T19:52:59.587Z,38.70
2022-08-19T19:55:26.344Z,38.80
2022-08-19T19:57:53.312Z,38.80
2022-08-19T20:00:20.974Z,38.90
2022-08-19T20:02:50.317Z,39.00
2022-08-19T20:05:17.773Z,39.20
2022-08-19T20:07:44.476Z,39.40
2022-08-19T20:10:11.268Z,39.50
2022-08-19T20:12:38.061Z,39.60
2022-08-19T20:15:05.671Z,39.60
2022-08-19T20:17:32.534Z,39.70
2022-08-19T20:19:59.279Z,40.00
2022-08-19T20:22:26.035Z,40.00
2022-08-19T20:24:52.773Z,40.10
2022-08-19T20:27:19.638Z,40.30
2022-08-19T20:29:49.504Z,40.50
2022-08-19T20:32:18.661Z,40.60
2022-08-19T20:34:45.515Z,40.70
2022-08-19T20:37:12.269Z,40.80
2022-08-19T20:39:39.183Z,41.00
2022-08-19T20:42:06.096Z,41.10
2022-08-19T20:44:32.884Z,41.20
2022-08-19T20:47:03.405Z,41.30
2022-08-19T20:49:30.670Z,41.40
2022-08-19T20:51:58.036Z,41.50
2022-08-19T20:54:24.867Z,41.50
2022-08-19T20:56:51.900Z,41.60
2022-08-19T20:59:19.024Z,41.60
2022-08-19T21:01:46.147Z,41.70
2022-08-19T21:04:12.963Z,41.70
2022-08-19T21:06:39.816Z,41.80
2022-08-19T21:09:08.900Z,41.90
2022-08-19T21:11:35.880Z,42.10
2022-08-19T21:14:02.629Z,42.20
2022-08-19T21:16:29.342Z,42.30
2022-08-19T21:18:56.029Z,42.20
2022-08-19T21:21:22.738Z,42.40
2022-08-19T21:23:49.793Z,42.40
2022-08-19T21:26:16.679Z,42.60
2022-08-19T21:28:43.578Z,42.60
2022-08-19T21:31:10.448Z,42.60
2022-08-19T21:33:37.484Z,42.70
2022-08-19T21:36:04.791Z,42.80
2022-08-19T21:38:41.374Z,42.90
2022-08-19T21:41:08.132Z,43.00
2022-08-19T21:43:36.686Z,43.00
2022-08-19T21:46:03.775Z,43.10
2022-08-19T21:48:30.591Z,43.30
2022-08-19T21:50:57.408Z,43.40
2022-08-19T21:53:24.152Z,43.40
2022-08-19T21:55:53.539Z,43.50
2022-08-19T21:58:28.775Z,43.60
2022-08-19T22:00:58.646Z,43.70
2022-08-19T22:03:25.832Z,43.80
2022-08-19T22:05:52.798Z,44.00
2022-08-19T22:08:19.532Z,44.00
2022-08-19T22:10:46.579Z,44.20
2022-08-19T22:13:13.439Z,44.30
2022-08-19T22:15:40.226Z,44.40
2022-08-19T22:18:06.940Z,44.50
2022-08-19T22:20:33.674Z,44.60
2022-08-19T22:23:02.443Z,44.70
2022-08-19T22:25:32.091Z,45.60
2022-08-19T22:28:03.100Z,45.00
2022-08-19T22:30:30.951Z,45.10
2022-08-19T22:33:01.533Z,45.10
2022-08-19T22:35:30.068Z,45.20
2022-08-19T22:37:57.464Z,45.30
2022-08-19T22:40:24.424Z,45.40
2022-08-19T22:42:58.246Z,45.40
2022-08-19T22:45:25.049Z,45.60
2022-08-19T22:47:51.854Z,45.60
2022-08-19T22:50:18.659Z,45.70
2022-08-19T22:52:51.775Z,45.70
2022-08-19T22:55:19.033Z,45.90
2022-08-19T22:57:45.788Z,45.90
2022-08-19T23:00:13.233Z,46.00
2022-08-19T23:02:51.670Z,46.10
2022-08-19T23:05:18.767Z,46.30
2022-08-19T23:07:52.635Z,46.30
2022-08-19T23:10:26.958Z,46.40
2022-08-19T23:12:55.362Z,46.40
2022-08-19T23:15:22.938Z,46.40
2022-08-19T23:17:53.297Z,46.50
2022-08-19T23:20:20.562Z,46.60
2022-08-19T23:22:47.480Z,46.60
2022-08-19T23:25:16.741Z,46.60
2022-08-19T23:27:44.050Z,46.80
2022-08-19T23:30:11.451Z,46.90
2022-08-19T23:32:38.178Z,46.90
2022-08-19T23:35:05.274Z,47.00
2022-08-19T23:37:32.068Z,47.20
2022-08-19T23:39:58.863Z,47.20
2022-08-19T23:42:25.607Z,47.30
2022-08-19T23:44:53.035Z,47.50
2022-08-19T23:47:20.652Z,47.50
2022-08-19T23:49:47.366Z,47.60
2022-08-19T23:52:14.301Z,47.80
2022-08-19T23:54:43.603Z,47.90
2022-08-19T23:57:13.334Z,47.80
2022-08-19T23:59:41.522Z,48.10
